sensor_id;sensor_type;location;lat;lon;timestamp;noise_LAeq;noise_LA_min;noise_LA_max;noise_LA01;noise_LA95
71030;Laerm;63723;51.436;5.976;2023-04-01T00:00:06;58.07;56.74;59.29;;
71030;Laerm;63723;51.436;5.976;2023-04-01T00:00:17;58.22;55.77;60.39;;
71030;Laerm;63723;51.436;5.976;2023-04-01T00:00:27;58.17;56.30;60.65;;
71030;Laerm;63723;51.436;5.976;2023-04-01T00:00:38;58.26;56.78;59.94;;
71030;Laerm;63723;51.436;5.976;2023-04-01T00:00:48;58.01;56.57;59.53;;
71030;Laerm;63723;51.436;5.976;2023-04-01T00:00:58;57.96;56.12;59.07;;
71030;Laerm;63723;51.436;5.976;2023-04-01T00:01:10;58.19;56.28;59.58;;
71030;Laerm;63723;51.436;5.976;2023-04-01T00:01:23;57.95;56.42;59.38;;
71030;Laerm;63723;51.436;5.976;2023-04-01T00:01:34;58.14;56.40;59.28;;
71030;Laerm;63723;51.436;5.976;2023-04-01T00:01:44;58.38;57.11;59.60;;
71030;Laerm;63723;51.436;5.976;2023-04-01T00:01:54;57.96;56.83;59.73;;
71030;Laerm;63723;51.436;5.976;2023-04-01T00:02:05;57.72;56.46;59.24;;
71030;Laerm;63723;51.436;5.976;2023-04-01T00:02:15;57.84;54.56;59.02;;
71030;Laerm;63723;51.436;5.976;2023-04-01T00:02:25;57.78;56.33;59.04;;
71030;Laerm;63723;51.436;5.976;2023-04-01T00:02:36;57.87;56.66;59.12;;
71030;Laerm;63723;51.436;5.976;2023-04-01T00:02:46;57.95;56.72;59.41;;
71030;Laerm;63723;51.436;5.976;2023-04-01T00:02:56;57.57;56.23;58.68;;
71030;Laerm;63723;51.436;5.976;2023-04-01T00:03:06;57.08;56.01;58.58;;
71030;Laerm;63723;51.436;5.976;2023-04-01T00:03:17;57.12;55.51;58.08;;
71030;Laerm;63723;51.436;5.976;2023-04-01T00:03:27;57.22;56.26;58.57;;
71030;Laerm;63723;51.436;5.976;2023-04-01T00:03:38;57.19;55.64;58.30;;
71030;Laerm;63723;51.436;5.976;2023-04-01T00:03:48;57.30;54.98;58.40;;
71030;Laerm;63723;51.436;5.976;2023-04-01T00:03:58;57.21;52.25;58.48;;
71030;Laerm;63723;51.436;5.976;2023-04-01T00:04:11;57.42;55.25;58.37;;
71030;Laerm;63723;51.436;5.976;2023-04-01T00:04:22;57.55;51.49;64.06;;
71030;Laerm;63723;51.436;5.976;2023-04-01T00:04:32;57.22;51.60;64.86;;
71030;Laerm;63723;51.436;5.976;2023-04-01T00:04:42;56.60;51.40;64.07;;
71030;Laerm;63723;51.436;5.976;2023-04-01T00:04:53;56.24;51.26;63.80;;
71030;Laerm;63723;51.436;5.976;2023-04-01T00:05:03;56.81;50.74;65.24;;
71030;Laerm;63723;51.436;5.976;2023-04-01T00:05:14;56.84;51.09;63.28;;
71030;Laerm;63723;51.436;5.976;2023-04-01T00:05:26;56.39;51.19;64.51;;
71030;Laerm;63723;51.436;5.976;2023-04-01T00:05:36;56.98;51.04;64.80;;
71030;Laerm;63723;51.436;5.976;2023-04-01T00:05:46;56.18;50.96;63.44;;
71030;Laerm;63723;51.436;5.976;2023-04-01T00:05:57;55.84;50.43;62.27;;
71030;Laerm;63723;51.436;5.976;2023-04-01T00:06:08;55.87;50.84;63.53;;
71030;Laerm;63723;51.436;5.976;2023-04-01T00:06:19;57.18;49.38;65.09;;
71030;Laerm;63723;51.436;5.976;2023-04-01T00:06:29;55.31;51.01;63.49;;
71030;Laerm;63723;51.436;5.976;2023-04-01T00:06:40;55.54;51.06;62.63;;
71030;Laerm;63723;51.436;5.976;2023-04-01T00:06:50;55.30;51.28;63.49;;
71030;Laerm;63723;51.436;5.976;2023-04-01T00:07:01;55.28;51.55;62.21;;
71030;Laerm;63723;51.436;5.976;2023-04-01T00:07:12;55.50;51.28;63.04;;
71030;Laerm;63723;51.436;5.976;2023-04-01T00:07:22;55.64;51.50;63.01;;
71030;Laerm;63723;51.436;5.976;2023-04-01T00:07:32;55.46;50.95;63.19;;
71030;Laerm;63723;51.436;5.976;2023-04-01T00:07:43;56.41;50.78;65.57;;
71030;Laerm;63723;51.436;5.976;2023-04-01T00:07:53;55.59;50.96;63.05;;
71030;Laerm;63723;51.436;5.976;2023-04-01T00:08:03;54.58;51.17;61.32;;
71030;Laerm;63723;51.436;5.976;2023-04-01T00:08:14;55.42;51.19;63.41;;
71030;Laerm;63723;51.436;5.976;2023-04-01T00:08:25;55.89;51.53;63.49;;
71030;Laerm;63723;51.436;5.976;2023-04-01T00:08:36;56.16;52.03;65.17;;
71030;Laerm;63723;51.436;5.976;2023-04-01T00:08:46;55.41;50.90;62.89;;
71030;Laerm;63723;51.436;5.976;2023-04-01T00:08:56;55.00;49.98;62.84;;
71030;Laerm;63723;51.436;5.976;2023-04-01T00:09:07;54.88;50.10;61.86;;
71030;Laerm;63723;51.436;5.976;2023-04-01T00:09:17;54.37;50.20;61.75;;
71030;Laerm;63723;51.436;5.976;2023-04-01T00:09:27;55.09;51.45;61.32;;
71030;Laerm;63723;51.436;5.976;2023-04-01T00:09:37;55.03;51.56;63.07;;
71030;Laerm;63723;51.436;5.976;2023-04-01T00:09:48;55.23;51.42;62.17;;
71030;Laerm;63723;51.436;5.976;2023-04-01T00:09:58;55.96;51.52;62.19;;
71030;Laerm;63723;51.436;5.976;2023-04-01T00:10:09;56.68;51.48;63.70;;
71030;Laerm;63723;51.436;5.976;2023-04-01T00:10:20;56.30;50.36;63.13;;
71030;Laerm;63723;51.436;5.976;2023-04-01T00:10:30;56.05;50.27;63.64;;
71030;Laerm;63723;51.436;5.976;2023-04-01T00:10:41;56.68;50.94;63.80;;
71030;Laerm;63723;51.436;5.976;2023-04-01T00:10:51;56.10;50.45;62.58;;
71030;Laerm;63723;51.436;5.976;2023-04-01T00:11:02;55.54;51.02;62.01;;
71030;Laerm;63723;51.436;5.976;2023-04-01T00:11:12;55.34;51.46;62.69;;
71030;Laerm;63723;51.436;5.976;2023-04-01T00:11:23;55.52;51.52;63.02;;
71030;Laerm;63723;51.436;5.976;2023-04-01T00:11:33;54.93;51.16;63.12;;
71030;Laerm;63723;51.436;5.976;2023-04-01T00:11:44;55.33;51.59;61.74;;
71030;Laerm;63723;51.436;5.976;2023-04-01T00:11:55;55.27;51.64;61.95;;
71030;Laerm;63723;51.436;5.976;2023-04-01T00:12:05;54.49;51.63;62.51;;
71030;Laerm;63723;51.436;5.976;2023-04-01T00:12:18;55.28;51.61;62.27;;
71030;Laerm;63723;51.436;5.976;2023-04-01T00:12:28;54.92;51.76;61.27;;
71030;Laerm;63723;51.436;5.976;2023-04-01T00:12:39;55.50;52.00;60.76;;
71030;Laerm;63723;51.436;5.976;2023-04-01T00:12:50;55.14;51.50;62.41;;
71030;Laerm;63723;51.436;5.976;2023-04-01T00:13:00;54.84;51.57;61.86;;
71030;Laerm;63723;51.436;5.976;2023-04-01T00:13:10;54.79;52.01;62.55;;
71030;Laerm;63723;51.436;5.976;2023-04-01T00:13:20;54.77;51.46;61.57;;
71030;Laerm;63723;51.436;5.976;2023-04-01T00:13:31;55.21;51.46;61.38;;
71030;Laerm;63723;51.436;5.976;2023-04-01T00:13:41;55.20;52.04;63.10;;
71030;Laerm;63723;51.436;5.976;2023-04-01T00:13:51;55.30;51.59;61.77;;
71030;Laerm;63723;51.436;5.976;2023-04-01T00:14:02;55.19;52.05;61.59;;
71030;Laerm;63723;51.436;5.976;2023-04-01T00:14:12;55.72;51.89;63.31;;
71030;Laerm;63723;51.436;5.976;2023-04-01T00:14:22;55.08;51.71;61.73;;
71030;Laerm;63723;51.436;5.976;2023-04-01T00:14:33;55.08;51.69;60.73;;
71030;Laerm;63723;51.436;5.976;2023-04-01T00:14:45;54.96;51.76;62.68;;
71030;Laerm;63723;51.436;5.976;2023-04-01T00:14:56;55.46;52.16;61.92;;
71030;Laerm;63723;51.436;5.976;2023-04-01T00:15:08;55.30;51.74;62.51;;
71030;Laerm;63723;51.436;5.976;2023-04-01T00:15:19;55.18;51.87;61.90;;
71030;Laerm;63723;51.436;5.976;2023-04-01T00:15:29;55.47;51.93;62.08;;
71030;Laerm;63723;51.436;5.976;2023-04-01T00:15:39;55.56;51.83;62.26;;
71030;Laerm;63723;51.436;5.976;2023-04-01T00:15:49;55.11;51.79;61.02;;
71030;Laerm;63723;51.436;5.976;2023-04-01T00:16:00;55.26;52.08;62.44;;
71030;Laerm;63723;51.436;5.976;2023-04-01T00:16:11;55.50;51.59;64.04;;
71030;Laerm;63723;51.436;5.976;2023-04-01T00:16:22;55.44;51.73;62.06;;
71030;Laerm;63723;51.436;5.976;2023-04-01T00:16:32;55.62;51.87;61.19;;
71030;Laerm;63723;51.436;5.976;2023-04-01T00:16:42;55.87;51.49;63.57;;
71030;Laerm;63723;51.436;5.976;2023-04-01T00:16:53;55.63;51.20;62.74;;
71030;Laerm;63723;51.436;5.976;2023-04-01T00:17:03;55.66;50.84;64.37;;
71030;Laerm;63723;51.436;5.976;2023-04-01T00:17:13;55.60;51.53;62.80;;
71030;Laerm;63723;51.436;5.976;2023-04-01T00:17:23;55.93;52.16;63.17;;
71030;Laerm;63723;51.436;5.976;2023-04-01T00:17:34;55.64;51.72;62.72;;
71030;Laerm;63723;51.436;5.976;2023-04-01T00:17:44;60.96;51.90;65.58;;
71030;Laerm;63723;51.436;5.976;2023-04-01T00:17:55;60.30;53.28;66.30;;
71030;Laerm;63723;51.436;5.976;2023-04-01T00:18:05;60.53;54.80;64.81;;
71030;Laerm;63723;51.436;5.976;2023-04-01T00:18:16;60.09;53.09;64.78;;
71030;Laerm;63723;51.436;5.976;2023-04-01T00:18:26;60.25;52.09;64.38;;
71030;Laerm;63723;51.436;5.976;2023-04-01T00:18:37;62.76;50.29;66.85;;
71030;Laerm;63723;51.436;5.976;2023-04-01T00:18:48;54.10;50.99;60.94;;
71030;Laerm;63723;51.436;5.976;2023-04-01T00:18:58;53.91;51.14;61.73;;
71030;Laerm;63723;51.436;5.976;2023-04-01T00:19:09;53.69;51.45;61.35;;
71030;Laerm;63723;51.436;5.976;2023-04-01T00:19:20;54.45;51.52;61.07;;
71030;Laerm;63723;51.436;5.976;2023-04-01T00:19:30;54.36;51.97;61.06;;
71030;Laerm;63723;51.436;5.976;2023-04-01T00:19:41;54.93;51.57;61.78;;
71030;Laerm;63723;51.436;5.976;2023-04-01T00:19:54;55.09;51.55;62.53;;
71030;Laerm;63723;51.436;5.976;2023-04-01T00:20:05;55.10;51.23;61.93;;
71030;Laerm;63723;51.436;5.976;2023-04-01T00:20:17;55.83;51.15;63.87;;
71030;Laerm;63723;51.436;5.976;2023-04-01T00:20:27;55.22;50.76;64.28;;
71030;Laerm;63723;51.436;5.976;2023-04-01T00:20:38;55.86;51.33;64.28;;
71030;Laerm;63723;51.436;5.976;2023-04-01T00:20:49;55.35;51.20;62.74;;
71030;Laerm;63723;51.436;5.976;2023-04-01T00:20:59;62.17;51.62;67.14;;
71030;Laerm;63723;51.436;5.976;2023-04-01T00:21:10;62.89;59.99;65.40;;
71030;Laerm;63723;51.436;5.976;2023-04-01T00:21:20;63.07;52.49;66.91;;
71030;Laerm;63723;51.436;5.976;2023-04-01T00:21:32;63.79;55.67;67.56;;
71030;Laerm;63723;51.436;5.976;2023-04-01T00:21:42;63.94;57.03;67.33;;
71030;Laerm;63723;51.436;5.976;2023-04-01T00:21:52;63.82;57.72;68.00;;
71030;Laerm;63723;51.436;5.976;2023-04-01T00:22:03;66.19;52.98;68.12;;
71030;Laerm;63723;51.436;5.976;2023-04-01T00:22:13;65.65;55.85;68.18;;
71030;Laerm;63723;51.436;5.976;2023-04-01T00:22:24;64.76;55.12;66.80;;
71030;Laerm;63723;51.436;5.976;2023-04-01T00:22:34;64.94;52.73;67.08;;
71030;Laerm;63723;51.436;5.976;2023-04-01T00:22:45;65.07;63.55;67.82;;
71030;Laerm;63723;51.436;5.976;2023-04-01T00:22:55;65.16;61.47;67.01;;
71030;Laerm;63723;51.436;5.976;2023-04-01T00:23:06;65.60;52.33;67.94;;
71030;Laerm;63723;51.436;5.976;2023-04-01T00:23:16;66.18;58.77;67.87;;
71030;Laerm;63723;51.436;5.976;2023-04-01T00:23:27;65.82;61.67;67.53;;
71030;Laerm;63723;51.436;5.976;2023-04-01T00:23:37;65.71;59.61;68.42;;
71030;Laerm;63723;51.436;5.976;2023-04-01T00:23:48;66.29;55.43;67.75;;
71030;Laerm;63723;51.436;5.976;2023-04-01T00:23:58;66.92;60.26;69.17;;
71030;Laerm;63723;51.436;5.976;2023-04-01T00:24:09;66.34;52.58;68.58;;
71030;Laerm;63723;51.436;5.976;2023-04-01T00:24:19;65.95;61.38;68.07;;
71030;Laerm;63723;51.436;5.976;2023-04-01T00:24:30;65.92;59.60;67.52;;
71030;Laerm;63723;51.436;5.976;2023-04-01T00:24:40;66.29;54.72;68.19;;
71030;Laerm;63723;51.436;5.976;2023-04-01T00:24:50;66.06;54.53;70.08;;
71030;Laerm;63723;51.436;5.976;2023-04-01T00:25:01;62.35;51.52;66.86;;
71030;Laerm;63723;51.436;5.976;2023-04-01T00:25:11;55.57;51.42;63.91;;
71030;Laerm;63723;51.436;5.976;2023-04-01T00:25:22;55.21;51.49;63.13;;
71030;Laerm;63723;51.436;5.976;2023-04-01T00:25:32;55.24;53.07;60.72;;
71030;Laerm;63723;51.436;5.976;2023-04-01T00:25:43;55.22;52.55;60.86;;
71030;Laerm;63723;51.436;5.976;2023-04-01T00:25:53;54.47;52.03;60.19;;
71030;Laerm;63723;51.436;5.976;2023-04-01T00:26:03;54.34;51.85;60.29;;
71030;Laerm;63723;51.436;5.976;2023-04-01T00:26:14;54.64;52.51;60.18;;
71030;Laerm;63723;51.436;5.976;2023-04-01T00:26:28;54.78;52.21;60.37;;
71030;Laerm;63723;51.436;5.976;2023-04-01T00:26:39;54.87;52.50;61.01;;
71030;Laerm;63723;51.436;5.976;2023-04-01T00:26:50;54.46;51.21;60.86;;
71030;Laerm;63723;51.436;5.976;2023-04-01T00:27:00;53.29;50.92;60.36;;
71030;Laerm;63723;51.436;5.976;2023-04-01T00:27:11;53.11;50.95;58.57;;
71030;Laerm;63723;51.436;5.976;2023-04-01T00:27:21;53.21;50.77;59.56;;
71030;Laerm;63723;51.436;5.976;2023-04-01T00:27:31;52.61;50.60;57.33;;
71030;Laerm;63723;51.436;5.976;2023-04-01T00:27:42;52.66;50.21;59.86;;
71030;Laerm;63723;51.436;5.976;2023-04-01T00:27:52;52.80;50.68;60.13;;
71030;Laerm;63723;51.436;5.976;2023-04-01T00:28:02;52.70;50.31;62.05;;
71030;Laerm;63723;51.436;5.976;2023-04-01T00:28:13;52.63;50.60;59.95;;
71030;Laerm;63723;51.436;5.976;2023-04-01T00:28:23;52.66;50.65;58.18;;
71030;Laerm;63723;51.436;5.976;2023-04-01T00:28:34;52.23;50.24;58.20;;
71030;Laerm;63723;51.436;5.976;2023-04-01T00:28:46;52.51;50.05;58.30;;
71030;Laerm;63723;51.436;5.976;2023-04-01T00:28:56;52.85;50.53;58.39;;
71030;Laerm;63723;51.436;5.976;2023-04-01T00:29:06;52.86;50.90;58.35;;
71030;Laerm;63723;51.436;5.976;2023-04-01T00:29:17;52.47;50.50;59.02;;
71030;Laerm;63723;51.436;5.976;2023-04-01T00:29:27;60.22;50.62;66.65;;
71030;Laerm;63723;51.436;5.976;2023-04-01T00:29:41;53.67;51.09;58.46;;
71030;Laerm;63723;51.436;5.976;2023-04-01T00:29:52;53.17;49.94;59.20;;
71030;Laerm;63723;51.436;5.976;2023-04-01T00:30:02;52.60;50.26;60.39;;
71030;Laerm;63723;51.436;5.976;2023-04-01T00:30:13;52.73;50.00;59.64;;
71030;Laerm;63723;51.436;5.976;2023-04-01T00:30:24;53.32;49.85;59.89;;
71030;Laerm;63723;51.436;5.976;2023-04-01T00:30:35;52.72;49.62;58.21;;
71030;Laerm;63723;51.436;5.976;2023-04-01T00:30:46;53.15;50.11;60.12;;
71030;Laerm;63723;51.436;5.976;2023-04-01T00:31:03;54.02;49.96;61.26;;
71030;Laerm;63723;51.436;5.976;2023-04-01T00:31:13;54.06;50.71;60.49;;
71030;Laerm;63723;51.436;5.976;2023-04-01T00:31:24;54.12;51.35;59.45;;
71030;Laerm;63723;51.436;5.976;2023-04-01T00:31:34;53.73;51.01;59.52;;
71030;Laerm;63723;51.436;5.976;2023-04-01T00:31:45;53.45;50.93;59.90;;
71030;Laerm;63723;51.436;5.976;2023-04-01T00:31:56;53.45;50.34;60.33;;
71030;Laerm;63723;51.436;5.976;2023-04-01T00:32:07;53.52;50.83;58.14;;
71030;Laerm;63723;51.436;5.976;2023-04-01T00:32:17;53.52;50.88;58.78;;
71030;Laerm;63723;51.436;5.976;2023-04-01T00:32:27;53.76;51.32;59.97;;
71030;Laerm;63723;51.436;5.976;2023-04-01T00:32:38;53.32;50.71;58.86;;
71030;Laerm;63723;51.436;5.976;2023-04-01T00:32:51;53.35;50.69;59.89;;
71030;Laerm;63723;51.436;5.976;2023-04-01T00:33:01;53.31;50.51;60.04;;
71030;Laerm;63723;51.436;5.976;2023-04-01T00:33:12;53.39;50.62;59.17;;
71030;Laerm;63723;51.436;5.976;2023-04-01T00:33:22;53.35;50.62;60.03;;
71030;Laerm;63723;51.436;5.976;2023-04-01T00:33:32;53.34;50.13;58.74;;
71030;Laerm;63723;51.436;5.976;2023-04-01T00:33:42;53.36;50.71;59.92;;
71030;Laerm;63723;51.436;5.976;2023-04-01T00:33:53;53.27;50.78;58.74;;
71030;Laerm;63723;51.436;5.976;2023-04-01T00:34:03;53.14;51.27;56.08;;
71030;Laerm;63723;51.436;5.976;2023-04-01T00:34:14;53.43;50.82;57.77;;
71030;Laerm;63723;51.436;5.976;2023-04-01T00:34:24;53.06;50.99;56.90;;
71030;Laerm;63723;51.436;5.976;2023-04-01T00:34:35;52.94;50.42;58.12;;
71030;Laerm;63723;51.436;5.976;2023-04-01T00:34:45;53.12;50.56;57.38;;
71030;Laerm;63723;51.436;5.976;2023-04-01T00:34:56;53.14;50.16;57.09;;
71030;Laerm;63723;51.436;5.976;2023-04-01T00:35:08;53.25;50.75;57.75;;
71030;Laerm;63723;51.436;5.976;2023-04-01T00:35:18;51.72;49.97;55.40;;
71030;Laerm;63723;51.436;5.976;2023-04-01T00:35:29;51.59;50.05;55.31;;
71030;Laerm;63723;51.436;5.976;2023-04-01T00:35:39;51.73;50.02;56.07;;
71030;Laerm;63723;51.436;5.976;2023-04-01T00:35:50;51.67;49.92;57.63;;
71030;Laerm;63723;51.436;5.976;2023-04-01T00:36:17;51.67;50.04;55.69;;
71030;Laerm;63723;51.436;5.976;2023-04-01T00:36:28;51.49;49.82;55.88;;
71030;Laerm;63723;51.436;5.976;2023-04-01T00:36:38;51.65;50.31;57.25;;
71030;Laerm;63723;51.436;5.976;2023-04-01T00:36:48;51.69;50.21;55.71;;
71030;Laerm;63723;51.436;5.976;2023-04-01T00:36:59;51.68;50.01;54.82;;
71030;Laerm;63723;51.436;5.976;2023-04-01T00:37:09;51.70;49.93;55.58;;
71030;Laerm;63723;51.436;5.976;2023-04-01T00:37:20;51.73;49.89;56.81;;
71030;Laerm;63723;51.436;5.976;2023-04-01T00:37:31;51.67;50.07;56.28;;
71030;Laerm;63723;51.436;5.976;2023-04-01T00:37:44;52.38;50.00;59.23;;
71030;Laerm;63723;51.436;5.976;2023-04-01T00:37:54;54.63;49.94;60.38;;
71030;Laerm;63723;51.436;5.976;2023-04-01T00:38:05;51.31;49.51;56.58;;
71030;Laerm;63723;51.436;5.976;2023-04-01T00:38:16;51.43;49.95;56.16;;
71030;Laerm;63723;51.436;5.976;2023-04-01T00:38:27;51.52;49.67;56.96;;
71030;Laerm;63723;51.436;5.976;2023-04-01T00:38:37;51.63;50.17;55.66;;
71030;Laerm;63723;51.436;5.976;2023-04-01T00:38:48;51.65;49.98;56.74;;
71030;Laerm;63723;51.436;5.976;2023-04-01T00:38:58;51.79;49.88;56.43;;
71030;Laerm;63723;51.436;5.976;2023-04-01T00:39:11;51.45;49.98;55.59;;
71030;Laerm;63723;51.436;5.976;2023-04-01T00:39:21;51.57;49.88;55.63;;
71030;Laerm;63723;51.436;5.976;2023-04-01T00:39:32;51.58;49.44;56.28;;
71030;Laerm;63723;51.436;5.976;2023-04-01T00:39:42;51.54;49.99;58.14;;
71030;Laerm;63723;51.436;5.976;2023-04-01T00:39:54;51.82;49.70;56.84;;
71030;Laerm;63723;51.436;5.976;2023-04-01T00:40:05;51.64;50.14;56.25;;
71030;Laerm;63723;51.436;5.976;2023-04-01T00:40:23;51.81;50.11;57.70;;
71030;Laerm;63723;51.436;5.976;2023-04-01T00:40:35;51.70;50.00;57.49;;
71030;Laerm;63723;51.436;5.976;2023-04-01T00:40:46;51.43;49.81;56.02;;
71030;Laerm;63723;51.436;5.976;2023-04-01T00:40:57;51.48;49.61;56.11;;
71030;Laerm;63723;51.436;5.976;2023-04-01T00:41:08;51.46;49.58;56.99;;
71030;Laerm;63723;51.436;5.976;2023-04-01T00:41:24;51.58;49.96;56.93;;
71030;Laerm;63723;51.436;5.976;2023-04-01T00:41:36;51.57;49.96;58.19;;
71030;Laerm;63723;51.436;5.976;2023-04-01T00:41:46;51.62;50.14;56.71;;
71030;Laerm;63723;51.436;5.976;2023-04-01T00:41:57;51.75;50.01;56.38;;
71030;Laerm;63723;51.436;5.976;2023-04-01T00:42:08;51.87;49.89;57.05;;
71030;Laerm;63723;51.436;5.976;2023-04-01T00:42:19;51.70;49.85;57.24;;
71030;Laerm;63723;51.436;5.976;2023-04-01T00:42:29;51.92;49.84;57.52;;
71030;Laerm;63723;51.436;5.976;2023-04-01T00:42:39;51.76;50.13;58.52;;
71030;Laerm;63723;51.436;5.976;2023-04-01T00:42:50;51.85;49.51;56.60;;
71030;Laerm;63723;51.436;5.976;2023-04-01T00:43:00;51.95;50.09;57.30;;
71030;Laerm;63723;51.436;5.976;2023-04-01T00:43:12;51.84;50.13;58.27;;
71030;Laerm;63723;51.436;5.976;2023-04-01T00:43:23;52.62;49.77;60.43;;
71030;Laerm;63723;51.436;5.976;2023-04-01T00:43:33;52.37;49.92;59.00;;
71030;Laerm;63723;51.436;5.976;2023-04-01T00:43:45;52.38;49.84;59.34;;
71030;Laerm;63723;51.436;5.976;2023-04-01T00:44:40;52.40;50.06;60.49;;
71030;Laerm;63723;51.436;5.976;2023-04-01T00:44:51;52.34;50.18;59.18;;
71030;Laerm;63723;51.436;5.976;2023-04-01T00:45:23;52.71;50.27;59.84;;
71030;Laerm;63723;51.436;5.976;2023-04-01T00:45:33;52.69;50.14;59.08;;
71030;Laerm;63723;51.436;5.976;2023-04-01T00:45:45;53.59;50.01;63.10;;
71030;Laerm;63723;51.436;5.976;2023-04-01T00:45:55;56.82;53.05;61.54;;
71030;Laerm;63723;51.436;5.976;2023-04-01T00:46:06;54.43;50.19;60.92;;
71030;Laerm;63723;51.436;5.976;2023-04-01T00:46:16;52.95;49.93;59.05;;
71030;Laerm;63723;51.436;5.976;2023-04-01T00:46:27;53.18;50.23;60.03;;
71030;Laerm;63723;51.436;5.976;2023-04-01T00:46:37;53.34;50.67;59.75;;
71030;Laerm;63723;51.436;5.976;2023-04-01T00:46:47;54.02;51.32;60.31;;
71030;Laerm;63723;51.436;5.976;2023-04-01T00:46:58;54.45;51.89;60.41;;
71030;Laerm;63723;51.436;5.976;2023-04-01T00:47:08;54.35;50.66;59.40;;
71030;Laerm;63723;51.436;5.976;2023-04-01T00:47:18;54.80;52.00;61.46;;
71030;Laerm;63723;51.436;5.976;2023-04-01T00:47:29;54.42;52.06;60.16;;
71030;Laerm;63723;51.436;5.976;2023-04-01T00:47:39;54.65;52.20;61.25;;
71030;Laerm;63723;51.436;5.976;2023-04-01T00:47:50;54.66;51.98;62.42;;
71030;Laerm;63723;51.436;5.976;2023-04-01T00:48:02;55.95;53.75;62.10;;
71030;Laerm;63723;51.436;5.976;2023-04-01T00:48:16;56.28;53.48;62.03;;
71030;Laerm;63723;51.436;5.976;2023-04-01T00:48:28;56.08;53.41;60.73;;
71030;Laerm;63723;51.436;5.976;2023-04-01T00:48:53;56.26;52.31;62.70;;
71030;Laerm;63723;51.436;5.976;2023-04-01T00:49:05;56.37;52.83;63.44;;
71030;Laerm;63723;51.436;5.976;2023-04-01T00:49:15;56.24;53.29;61.65;;
71030;Laerm;63723;51.436;5.976;2023-04-01T00:49:31;55.73;53.11;62.54;;
71030;Laerm;63723;51.436;5.976;2023-04-01T00:49:44;56.24;53.36;64.45;;
71030;Laerm;63723;51.436;5.976;2023-04-01T00:49:55;56.00;52.77;63.51;;
71030;Laerm;63723;51.436;5.976;2023-04-01T00:50:05;56.02;52.36;64.40;;
71030;Laerm;63723;51.436;5.976;2023-04-01T00:50:16;56.02;53.03;62.93;;
71030;Laerm;63723;51.436;5.976;2023-04-01T00:50:26;55.38;52.97;61.59;;
71030;Laerm;63723;51.436;5.976;2023-04-01T00:50:39;55.49;51.91;61.45;;
71030;Laerm;63723;51.436;5.976;2023-04-01T00:50:52;55.95;52.69;61.55;;
71030;Laerm;63723;51.436;5.976;2023-04-01T00:51:07;55.85;52.64;62.82;;
71030;Laerm;63723;51.436;5.976;2023-04-01T00:51:23;61.47;53.03;70.09;;
71030;Laerm;63723;51.436;5.976;2023-04-01T00:51:35;55.94;50.54;62.07;;
71030;Laerm;63723;51.436;5.976;2023-04-01T00:51:48;56.01;52.69;62.14;;
71030;Laerm;63723;51.436;5.976;2023-04-01T00:52:00;55.91;51.84;62.73;;
71030;Laerm;63723;51.436;5.976;2023-04-01T00:52:12;55.87;52.91;62.85;;
71030;Laerm;63723;51.436;5.976;2023-04-01T00:52:24;56.17;53.02;61.48;;
71030;Laerm;63723;51.436;5.976;2023-04-01T00:52:35;56.09;52.95;61.87;;
71030;Laerm;63723;51.436;5.976;2023-04-01T00:52:46;55.80;52.76;61.66;;
71030;Laerm;63723;51.436;5.976;2023-04-01T00:52:56;55.67;53.13;61.40;;
71030;Laerm;63723;51.436;5.976;2023-04-01T00:53:07;55.71;53.16;62.08;;
71030;Laerm;63723;51.436;5.976;2023-04-01T00:53:18;56.03;53.20;62.23;;
71030;Laerm;63723;51.436;5.976;2023-04-01T00:53:30;56.06;52.22;62.78;;
71030;Laerm;63723;51.436;5.976;2023-04-01T00:53:43;55.57;52.77;60.66;;
71030;Laerm;63723;51.436;5.976;2023-04-01T00:53:55;55.68;52.79;61.63;;
71030;Laerm;63723;51.436;5.976;2023-04-01T00:54:06;55.47;53.00;61.16;;
71030;Laerm;63723;51.436;5.976;2023-04-01T00:54:16;55.71;52.81;62.21;;
71030;Laerm;63723;51.436;5.976;2023-04-01T00:54:28;55.80;51.76;61.21;;
71030;Laerm;63723;51.436;5.976;2023-04-01T00:54:38;55.38;52.84;61.63;;
71030;Laerm;63723;51.436;5.976;2023-04-01T00:54:53;55.69;52.79;63.63;;
71030;Laerm;63723;51.436;5.976;2023-04-01T00:55:05;55.34;52.75;60.73;;
71030;Laerm;63723;51.436;5.976;2023-04-01T00:55:17;55.55;52.62;62.97;;
71030;Laerm;63723;51.436;5.976;2023-04-01T00:55:30;55.23;51.97;62.23;;
71030;Laerm;63723;51.436;5.976;2023-04-01T00:55:42;54.16;51.35;60.50;;
71030;Laerm;63723;51.436;5.976;2023-04-01T00:55:55;54.67;52.40;59.12;;
71030;Laerm;63723;51.436;5.976;2023-04-01T00:56:17;54.83;52.08;59.61;;
71030;Laerm;63723;51.436;5.976;2023-04-01T00:56:32;54.52;51.70;62.29;;
71030;Laerm;63723;51.436;5.976;2023-04-01T00:56:58;54.95;51.64;63.24;;
71030;Laerm;63723;51.436;5.976;2023-04-01T00:57:27;57.77;52.14;65.87;;
71030;Laerm;63723;51.436;5.976;2023-04-01T00:57:40;53.99;51.26;60.29;;
71030;Laerm;63723;51.436;5.976;2023-04-01T00:57:53;53.74;51.50;59.20;;
71030;Laerm;63723;51.436;5.976;2023-04-01T00:58:07;53.86;51.03;59.13;;
71030;Laerm;63723;51.436;5.976;2023-04-01T00:58:20;53.88;51.01;59.67;;
71030;Laerm;63723;51.436;5.976;2023-04-01T00:58:32;53.82;51.55;59.58;;
71030;Laerm;63723;51.436;5.976;2023-04-01T00:58:46;53.73;51.28;58.74;;
71030;Laerm;63723;51.436;5.976;2023-04-01T00:59:02;53.90;50.79;61.46;;
71030;Laerm;63723;51.436;5.976;2023-04-01T00:59:14;53.66;50.37;60.72;;
71030;Laerm;63723;51.436;5.976;2023-04-01T00:59:30;54.80;50.97;61.20;;
71030;Laerm;63723;51.436;5.976;2023-04-01T00:59:43;54.58;51.21;61.75;;
71030;Laerm;63723;51.436;5.976;2023-04-01T00:59:53;53.80;50.92;62.38;;
71030;Laerm;63723;51.436;5.976;2023-04-01T01:00:05;53.82;50.70;64.07;;
71030;Laerm;63723;51.436;5.976;2023-04-01T01:00:19;53.42;50.63;59.89;;
71030;Laerm;63723;51.436;5.976;2023-04-01T01:00:29;55.46;51.07;61.65;;
71030;Laerm;63723;51.436;5.976;2023-04-01T01:00:41;53.99;50.73;61.88;;
71030;Laerm;63723;51.436;5.976;2023-04-01T01:00:52;53.93;50.45;60.29;;
71030;Laerm;63723;51.436;5.976;2023-04-01T01:01:03;53.76;50.45;61.16;;
71030;Laerm;63723;51.436;5.976;2023-04-01T01:01:14;53.98;50.52;62.11;;
71030;Laerm;63723;51.436;5.976;2023-04-01T01:01:25;54.36;50.71;62.08;;
71030;Laerm;63723;51.436;5.976;2023-04-01T01:01:36;54.04;50.37;62.01;;
71030;Laerm;63723;51.436;5.976;2023-04-01T01:01:46;54.50;50.58;61.92;;
71030;Laerm;63723;51.436;5.976;2023-04-01T01:01:57;55.40;50.72;63.12;;
71030;Laerm;63723;51.436;5.976;2023-04-01T01:02:08;54.18;50.65;60.71;;
71030;Laerm;63723;51.436;5.976;2023-04-01T01:02:20;53.90;50.68;59.39;;
71030;Laerm;63723;51.436;5.976;2023-04-01T01:02:30;54.79;50.38;61.60;;
71030;Laerm;63723;51.436;5.976;2023-04-01T01:02:41;54.91;51.00;63.16;;
71030;Laerm;63723;51.436;5.976;2023-04-01T01:02:52;55.05;51.09;62.89;;
71030;Laerm;63723;51.436;5.976;2023-04-01T01:03:03;55.63;51.19;63.07;;
71030;Laerm;63723;51.436;5.976;2023-04-01T01:03:13;56.22;50.90;63.28;;
71030;Laerm;63723;51.436;5.976;2023-04-01T01:03:23;55.89;51.12;63.20;;
71030;Laerm;63723;51.436;5.976;2023-04-01T01:03:34;55.39;50.90;63.47;;
71030;Laerm;63723;51.436;5.976;2023-04-01T01:03:44;55.82;50.93;62.77;;
71030;Laerm;63723;51.436;5.976;2023-04-01T01:03:55;56.08;51.29;63.82;;